Amelia Island, Florida
Current Conditions -  °F | °C
As of 1:55 AM on Monday 24 Nov 2014 (Local Time) from KFHB Reporting Station
Scattered Clouds Scattered Clouds  
Wind Chill: 73°   Ceiling: Unl
Heat Index: 73°   Visibility: 10mi
Dew Point: 72°   Wind: 6mph
Humidity: 94%   Direction: 190°S
Pressure: 29.86"   Gusts: NA
Location:  30.6056°N, 81.5268°W
Report Text: KFHB 240655Z AUTO 19005KT 10SM SCT095 23/22 A2986 RMK AO1
Loading
Personal Weather Stations






























Interactive Weather Map New forecast layout! Learn more

10-Day Weather Forecast

Advertisements
Track Severe Weather on mobile